Estació municipal de St. Julià de Vilatorta (Osona, E.N.Guilleries-Savassona)

Consulta les dades en temps real de l'estació municipal de St. Julià de Vilatorta





Hora UTC 15:15
Temperatura 27.5 ºC
Subsòl 10 cm 30.2 ºC
Humitat 52.8 %
Pressió 1018.4 hPa
Pluja 0.0 mm
Velocitat vent 14.6 km/h
Direcció vent SSW
Radiació solar 288.4 W/m²
Fuel 4.8 %

Webcam

Dades diàries 2026-09-01



Hora UTC (hivern +1h; estiu +2h)
Temperatura (ºC) Humitat (%) Pressió (hPa) Velocitat vent (km/h) Precipitació (mm) Fuel (%) Radiació solar (W/m²)
Hora UTC Aire Subsòl 10 cm Humitat Pressió Vel. Dir. Vel. Max Dir. Intent. màx 5 min. Fuel Rad. Sol.
00:05 19.3 15.6 86.7 1020.9 1.5 SE 1.5 ESE 0.0 7.9 0.6
00:10 19.2 15.5 86.7 1020.9 1.1 SE 2.1 SE 0.0 8.0 0.4
00:15 19.1 15.4 87.7 1020.9 0.8 SSE 2.1 SE 0.0 8.1 0.4
00:20 19.0 15.3 88.3 1020.9 1.5 SE 2.7 ESE 0.0 8.1 0.7
00:25 18.9 15.3 88.5 1020.9 1.1 ESE 1.9 SE 0.0 8.1 0.4
00:30 18.9 15.4 88.8 1020.8 1.1 S 1.8 SE 0.0 8.2 0.7
00:35 18.8 15.7 89.1 1020.8 1.5 S 2.9 SE 0.0 8.3 1.0
00:40 18.8 16.3 89.3 1020.7 2.0 ESE 3.2 E 0.0 8.3 1.4
00:45 19.1 16.8 88.7 1020.7 2.3 ESE 3.8 S 0.0 8.4 1.2
00:50 19.1 17.3 88.1 1020.8 1.9 SE 5.2 SE 0.0 8.4 1.2
00:55 19.2 17.6 88.0 1020.8 3.0 SE 5.0 SSE 0.0 8.4 1.1
01:00 19.5 18.0 86.9 1020.8 3.8 SSE 5.3 SSE 0.0 8.5 0.7
01:05 19.6 18.1 85.8 1020.8 2.4 SSE 3.6 S 0.0 8.5 0.6
01:10 19.7 18.2 85.2 1020.8 2.4 SSE 3.7 SE 0.0 8.3 0.2
01:15 19.7 18.3 84.8 1020.7 3.8 SSE 4.8 SE 0.0 8.5 0.2
01:20 19.9 18.4 84.9 1020.7 2.4 SE 5.2 SE 0.0 8.5 0.2
01:25 19.9 18.6 84.9 1020.7 1.5 SE 3.0 SE 0.0 8.5 0.2
01:30 19.9 18.7 84.8 1020.7 2.0 ESE 3.2 SE 0.0 8.3 0.2
01:35 19.9 18.7 84.8 1020.7 1.5 ESE 3.0 E 0.0 8.5 0.0
01:40 19.9 18.8 85.0 1020.7 0.6 ESE 1.8 SSE 0.0 8.6 0.0
01:45 19.9 18.7 85.2 1020.7 1.6 S 3.6 SSE 0.0 8.6 0.0
01:50 19.8 18.5 85.4 1020.7 0.9 ESE 1.8 SE 0.0 8.6 0.0
01:55 19.7 18.4 85.8 1020.7 0.8 SSE 1.9 SE 0.0 8.6 0.0
02:00 19.6 18.3 85.8 1020.7 2.0 SSE 3.5 SE 0.0 8.6 0.2
02:05 19.6 18.3 86.4 1020.6 1.2 NNE 2.2 SE 0.0 8.7 0.4
02:10 19.7 18.4 86.7 1020.7 1.7 NNW 3.5 WSW 0.0 8.7 0.8
02:15 19.8 18.6 86.7 1020.7 1.2 SW 2.6 SSE 0.0 8.7 0.7
02:20 19.9 18.8 86.1 1020.6 0.8 S 2.0 SSE 0.0 8.8 0.6
02:25 20.0 18.9 85.7 1020.6 1.3 S 2.1 S 0.0 8.8 0.5
02:30 20.1 19.0 85.4 1020.5 1.2 S 2.3 SSE 0.0 8.8 0.3
02:35 20.2 19.2 85.3 1020.5 2.2 SSW 6.4 S 0.0 8.8 0.3
02:40 20.1 19.3 85.1 1020.5 1.2 SE 2.6 SSE 0.0 8.8 0.2
02:45 20.2 19.3 85.4 1020.4 1.0 SSE 2.0 SSE 0.0 8.8 0.2
02:50 20.3 19.4 85.6 1020.3 0.9 S 2.4 W 0.0 8.8 0.1
02:55 20.3 19.3 85.7 1020.3 1.1 SSW 2.7 SW 0.0 8.8 0.2
03:00 20.3 19.3 85.6 1020.3 1.0 WNW 2.8 WNW 0.0 8.9 0.2
03:05 20.3 19.3 85.7 1020.3 1.8 W 3.3 WNW 0.0 8.9 0.3
03:10 20.3 19.4 85.6 1020.3 1.3 WSW 3.0 WSW 0.0 8.9 0.2
03:15 20.4 19.4 85.5 1020.3 1.1 WSW 2.2 WSW 0.0 8.9 0.2
03:20 20.4 19.5 85.4 1020.2 0.9 W 1.9 NNW 0.0 8.9 0.2
03:25 20.4 19.5 85.7 1020.1 0.9 NW 1.6 NW 0.0 8.9 0.2
03:30 20.4 19.6 85.6 1020.1 1.4 NW 2.5 NW 0.0 9.0 0.2
03:35 20.4 19.6 85.6 1020.1 1.7 NW 3.1 NW 0.0 8.9 0.2
03:40 20.4 19.7 85.8 1020.0 1.4 NNW 2.6 NNW 0.0 9.0 0.1
03:45 20.4 19.7 85.8 1020.0 1.2 WNW 2.3 WNW 0.0 9.0 0.1
03:50 20.4 19.6 85.9 1020.0 0.7 WSW 1.9 NNW 0.0 9.0 0.0
03:55 20.4 19.6 86.1 1019.9 1.4 WNW 2.3 NW 0.0 9.0 0.0
04:00 20.4 19.5 86.3 1019.9 1.1 W 2.9 NNW 0.0 9.0 0.0
04:05 20.3 19.3 86.6 1019.9 1.5 W 3.3 WNW 0.0 9.1 0.0
04:10 20.2 19.1 87.0 1019.9 2.2 NW 3.5 NW 0.0 9.1 0.0
04:15 20.1 18.8 87.3 1019.9 2.1 W 3.8 NW 0.0 9.1 0.0
04:20 20.0 18.5 87.6 1019.9 1.0 SW 2.2 WSW 0.0 9.2 0.2
04:25 20.0 18.5 87.9 1019.9 1.1 W 2.0 SW 0.0 9.2 0.3
04:30 19.9 18.6 88.3 1019.8 1.3 S 2.3 SSE 0.0 8.9 0.2
04:35 19.9 18.7 88.4 1019.8 1.5 SSE 2.3 SSE 0.0 9.1 0.2
04:40 19.9 18.7 88.6 1019.8 0.9 W 1.8 WNW 0.0 8.5 0.0
04:45 19.9 18.6 88.8 1019.8 1.2 SW 2.3 SSW 0.0 9.3 0.1
04:50 19.8 18.5 88.8 1019.8 1.2 S 2.0 SSE 0.0 9.3 0.0
04:55 19.8 18.2 88.8 1019.8 1.2 S 2.2 SSW 0.0 8.6 0.0
05:00 19.6 17.9 89.2 1019.8 2.0 S 3.0 SSE 0.0 9.4 0.0
05:05 19.5 17.7 89.9 1019.8 2.9 SSE 4.0 SSE 0.0 9.4 0.2
05:10 19.4 17.7 90.0 1019.8 3.1 SSE 4.9 SE 0.0 9.5 1.1
05:15 19.4 17.7 90.0 1019.8 2.3 ESE 4.3 SE 0.0 9.5 1.8
05:20 19.3 17.7 90.3 1019.9 1.4 ESE 2.3 E 0.0 9.5 3.0
05:25 19.3 17.7 90.3 1019.9 1.9 SE 3.3 SE 0.0 9.4 4.9
05:30 19.3 17.7 89.9 1019.9 3.2 SE 5.3 SE 0.0 9.6 7.5
05:35 19.3 17.7 89.6 1019.9 2.3 SE 4.1 SE 0.0 9.6 12.7
05:40 19.3 17.8 89.6 1020.0 2.6 SE 4.2 ESE 0.0 9.6 17.2
05:45 19.3 18.0 89.4 1020.0 3.4 SE 5.1 SE 0.0 9.6 22.2
05:50 19.5 18.2 88.6 1020.0 2.8 SE 5.3 SSE 0.0 9.7 25.5
05:55 19.5 18.3 88.5 1020.1 1.7 ESE 3.6 SE 0.0 9.7 30.2
06:00 19.5 18.2 88.6 1020.1 1.6 SSE 2.7 SE 0.0 9.7 33.8
06:05 19.4 18.1 88.9 1020.1 1.6 ESE 2.2 ESE 0.0 9.6 37.2
06:10 19.4 17.9 89.1 1020.0 1.9 SSE 3.1 SSE 0.0 9.7 39.6
06:15 19.4 17.8 88.9 1020.0 3.2 SSE 5.0 SSE 0.0 9.7 45.0
06:20 19.3 17.9 88.7 1020.1 3.2 SE 5.3 SSE 0.0 9.7 47.9
06:25 19.4 17.9 88.9 1020.1 1.1 SE 3.6 S 0.0 9.8 51.8
06:30 19.4 17.9 89.1 1020.1 0.8 ENE 2.0 NE 0.0 9.8 56.3
06:35 19.5 18.0 89.2 1020.1 1.0 NE 1.9 NE 0.0 9.3 117.3
06:40 19.6 18.0 88.9 1020.2 0.3 ENE 0.7 N 0.0 9.8 162.1
06:45 19.8 18.2 87.9 1020.2 0.5 NNE 1.6 N 0.0 9.8 177.9
06:50 20.2 18.4 85.9 1020.2 1.3 NNE 2.2 NNE 0.0 9.8 191.9
06:55 20.8 18.8 83.8 1020.3 1.4 NNE 4.1 NNW 0.0 9.8 208.3
07:00 20.9 19.4 82.4 1020.3 2.3 N 4.1 NNW 0.0 9.8 218.6
07:05 21.3 20.0 80.8 1020.3 1.5 NE 3.9 NE 0.0 9.8 229.7
07:10 22.1 20.6 77.8 1020.2 1.2 ENE 2.5 ENE 0.0 9.5 252.7
07:15 22.2 21.4 77.1 1020.2 1.6 NE 2.8 NE 0.0 9.4 267.8
07:20 22.6 22.3 74.6 1020.3 1.6 NNE 4.1 ENE 0.0 9.6 290.6
07:25 22.3 23.1 76.5 1020.3 1.8 N 4.6 NNE 0.0 9.6 305.1
07:30 22.5 23.9 75.1 1020.4 2.3 E 4.1 ENE 0.0 9.5 319.9
07:35 23.0 24.5 73.6 1020.4 3.1 SSW 5.7 S 0.0 9.5 333.1
07:40 23.0 24.8 72.2 1020.4 2.4 W 6.9 W 0.0 9.4 344.3
07:45 23.0 25.0 70.5 1020.4 1.3 NE 2.8 ENE 0.0 9.3 360.9
07:50 23.0 25.2 70.2 1020.3 2.1 NNW 5.0 NW 0.0 9.2 384.5
07:55 22.6 25.1 71.1 1020.2 3.1 N 5.3 N 0.0 8.5 395.6
08:00 22.4 25.2 71.6 1020.2 3.0 N 5.2 NNE 0.0 9.0 420.5
08:05 22.5 25.2 71.5 1020.2 2.0 NNW 6.0 WNW 0.0 9.0 441.8
08:10 23.3 25.6 67.4 1020.2 2.1 WNW 5.0 W 0.0 8.9 461.8
08:15 23.2 26.1 68.3 1020.2 3.3 NNW 9.0 NNW 0.0 8.9 467.6
08:20 23.1 26.3 69.0 1020.2 4.8 N 8.6 NNW 0.0 8.2 480.0
08:25 23.0 26.8 69.3 1020.2 4.1 N 6.9 NNW 0.0 8.7 497.6
08:30 23.4 27.1 68.0 1020.2 2.9 WNW 5.7 NW 0.0 8.7 515.9
08:35 24.1 27.6 65.8 1020.2 2.8 NW 6.4 N 0.0 8.6 538.8
08:40 23.5 28.0 67.8 1020.2 6.6 N 11.4 NNW 0.0 8.6 539.0
08:45 23.2 28.1 69.3 1020.2 3.8 N 9.1 N 0.0 8.5 392.7
08:50 23.4 28.2 68.3 1020.2 4.0 NNW 9.1 NNW 0.0 8.4 562.4
08:55 24.1 28.7 64.7 1020.2 3.2 SW 6.6 SSW 0.0 8.4 574.3
09:00 24.5 29.3 63.6 1020.2 5.1 NW 12.2 NW 0.0 8.1 596.0
09:05 24.1 29.3 64.4 1020.2 3.8 NNW 7.7 NW 0.0 8.3 607.5
09:10 24.4 29.7 62.9 1020.2 3.8 NW 8.6 NW 0.0 8.2 615.7
09:15 24.2 29.8 64.6 1020.2 5.7 N 9.2 NNE 0.0 8.1 630.1
09:20 24.4 30.0 64.1 1020.2 5.2 NE 9.3 NE 0.0 8.1 644.3
09:25 24.6 30.3 63.2 1020.2 1.6 E 5.4 NE 0.0 8.0 654.6
09:30 24.8 30.7 62.1 1020.1 3.2 NE 5.9 ENE 0.0 8.0 666.5
09:35 24.8 30.6 61.9 1020.1 2.2 WSW 6.5 W 0.0 8.0 677.2
09:40 25.2 30.8 62.2 1020.1 4.0 WSW 6.7 W 0.0 7.9 690.6
09:45 25.9 31.1 59.5 1020.0 3.3 SW 6.9 SW 0.0 8.0 703.3
09:50 26.1 31.6 58.2 1020.1 3.8 SW 7.6 SSW 0.0 7.8 715.3
09:55 25.6 31.7 59.7 1020.0 2.9 E 7.1 S 0.0 7.7 721.0
10:00 26.0 32.1 56.6 1020.0 3.3 WSW 7.5 SSW 0.0 8.0 732.1
10:05 26.5 32.7 55.7 1020.0 3.6 S 12.0 S 0.0 7.6 741.6
10:10 26.8 33.4 54.7 1020.0 4.4 SSE 12.5 SSW 0.0 7.6 748.3
10:15 26.9 33.7 55.7 1020.1 7.0 W 13.9 NW 0.0 7.5 761.2
10:20 27.0 34.1 53.3 1020.1 6.1 SSW 10.7 SSW 0.0 7.4 772.4
10:25 27.3 34.5 52.8 1020.0 6.8 SSW 11.7 SSW 0.0 7.3 778.6
10:30 28.0 35.2 51.1 1020.0 5.6 SSW 11.4 SSW 0.0 7.2 786.4
10:35 28.3 36.5 49.7 1019.9 5.6 SSE 14.7 S 0.0 7.2 794.0
10:40 28.3 36.8 48.0 1019.8 9.4 S 16.7 S 0.0 7.1 805.0
10:45 28.6 37.1 48.0 1019.8 11.2 SSW 28.1 SSW 0.0 6.9 814.0
10:50 28.2 35.6 49.3 1019.8 17.2 SSW 32.5 SW 0.0 6.8 823.0
10:55 28.2 34.9 49.8 1019.9 14.7 SSW 26.9 SSW 0.0 6.7 823.0
11:00 28.2 34.6 50.1 1019.9 18.3 SSW 34.0 SSW 0.0 6.7 828.0
11:05 28.3 35.0 50.3 1019.9 13.6 SSW 23.5 S 0.0 6.6 830.0
11:10 28.7 35.8 48.8 1019.9 13.8 SSW 26.5 S 0.0 6.6 830.0
11:15 28.5 35.6 48.5 1019.8 18.2 SSW 36.0 SW 0.0 6.5 839.0
11:20 28.2 35.0 48.7 1019.8 17.8 SSW 35.0 SSW 0.0 6.4 844.0
11:25 28.4 35.0 48.1 1019.8 15.6 SSW 29.8 SW 0.0 6.3 847.0
11:30 28.6 35.5 46.9 1019.8 13.2 SSW 26.1 SSW 0.0 6.3 853.0
11:35 28.5 35.5 46.7 1019.8 15.8 SSW 31.5 SSW 0.0 6.2 853.0
11:40 28.6 35.6 46.2 1019.8 17.4 SSW 29.0 SSW 0.0 6.2 849.0
11:45 28.6 35.8 46.2 1019.8 11.3 SW 22.2 SSW 0.0 6.1 850.0
11:50 28.6 35.9 45.6 1019.7 16.1 SSW 30.0 SW 0.0 6.1 854.0
11:55 28.5 35.6 45.3 1019.7 18.5 SSW 29.5 SSW 0.0 6.0 856.0
12:00 28.8 35.9 45.3 1019.8 13.4 SSW 28.4 SW 0.0 6.0 855.0
12:05 28.8 36.0 44.5 1019.8 16.5 SSW 31.5 SW 0.0 5.9 858.0
12:10 28.7 36.2 44.5 1019.7 15.0 S 29.5 SSW 0.0 5.9 859.0
12:15 28.8 36.0 44.4 1019.7 18.8 SSW 34.8 SW 0.0 5.8 856.0
12:20 28.7 35.9 44.4 1019.7 18.8 SSW 29.1 SSW 0.0 5.8 858.0
12:25 28.6 36.0 45.3 1019.6 14.0 SSW 30.3 SW 0.0 5.7 854.0
12:30 29.0 36.6 44.0 1019.6 15.8 SSW 31.3 SW 0.0 5.7 864.0
12:35 28.9 36.3 44.6 1019.6 20.6 SSW 33.7 SSW 0.0 5.7 860.0
12:40 28.6 35.3 44.8 1019.7 15.0 SSW 26.0 SW 0.0 5.6 582.0
12:45 28.7 35.7 45.1 1019.6 12.9 SSW 22.5 SW 0.0 4.9 670.6
12:50 28.6 34.4 45.0 1019.6 14.5 SSW 27.9 SW 0.0 4.8 266.3
12:55 28.1 32.4 46.5 1019.6 15.4 SSW 25.3 SSW 0.0 4.8 381.1
13:00 28.1 32.1 46.9 1019.5 17.7 SSW 31.2 SW 0.0 4.9 546.9
13:05 27.8 31.8 48.7 1019.5 16.7 SSW 30.8 SW 0.0 4.9 591.6
13:10 28.3 33.5 48.1 1019.5 11.0 S 19.4 SSW 0.0 5.6 831.0
13:15 28.7 35.6 47.1 1019.4 10.7 S 18.8 SSW 0.0 4.9 793.4
13:20 28.6 35.3 47.5 1019.3 13.9 SSW 23.5 SSW 0.0 4.9 303.8
13:25 27.7 32.9 49.7 1019.3 16.2 SSW 28.4 SW 0.0 4.8 417.5
13:30 28.1 33.0 50.0 1019.3 13.7 SSW 26.6 SSW 0.0 4.9 881.0
13:35 28.8 34.4 48.3 1019.3 15.6 SSW 26.8 SSW 0.0 5.7 624.2
13:40 28.0 33.5 50.0 1019.3 14.6 SSW 26.9 SSW 0.0 4.7 321.0
13:45 27.5 31.7 51.5 1019.3 16.4 SSW 31.1 SSW 0.0 4.8 297.3
13:50 27.4 30.5 51.8 1019.3 14.2 SSW 28.8 SSW 0.0 4.8 275.7
13:55 27.3 29.5 53.1 1019.1 12.4 S 25.8 SSW 0.0 4.8 217.4
14:00 27.1 29.0 54.1 1018.8 10.3 S 16.6 SSE 0.0 4.8 182.0
14:05 27.0 28.5 53.7 1018.9 14.1 SSW 22.6 SW 0.0 4.9 269.2
14:10 27.3 29.0 53.1 1018.9 13.9 SSW 22.6 SSW 0.0 5.6 404.3
14:15 27.9 30.8 52.9 1018.8 12.1 SSW 25.9 SSW 0.0 5.6 783.9
14:20 28.6 33.3 51.7 1018.6 11.4 S 23.5 SSW 0.0 5.7 649.4
14:25 28.2 34.2 52.6 1018.7 11.3 SSW 21.9 SSW 0.0 5.6 473.2
14:30 28.1 33.4 52.6 1018.6 12.9 SSW 23.5 SSW 0.0 4.9 440.4
14:35 28.4 33.8 51.8 1018.7 11.4 SSW 22.5 SSW 0.0 4.8 719.7
14:40 28.3 34.6 52.1 1018.7 14.0 SSW 28.6 SW 0.0 5.7 625.5
14:45 28.0 34.0 52.8 1018.6 12.5 SSW 25.1 SSW 0.0 4.9 596.7
14:50 28.2 33.8 52.4 1018.6 15.6 SSW 33.3 SW 0.0 4.9 621.1
14:55 28.1 33.5 51.7 1018.6 17.4 SSW 27.8 SSW 0.0 4.9 606.4
15:00 28.3 33.7 50.9 1018.4 9.4 SSW 20.2 SSW 0.0 4.9 506.5
15:05 28.4 33.1 51.3 1018.4 14.9 SSW 25.6 SSW 0.0 4.9 397.1
15:10 27.8 31.5 53.0 1018.4 12.4 SSW 25.5 SW 0.0 4.8 175.2
15:15 27.5 30.2 52.8 1018.4 14.6 SSW 22.6 SSW 0.0 4.8 288.4
Màxima 29.0 37.1 90.3 1020.9 20.6 SSW 36.0 SW 0.0 9.8 881.0
Mínima 18.8 15.3 44.0 1018.4 4.7
Total 0.0